createdAt,value
2023-09-21T00:02:22.230Z,2.20
2023-09-21T00:05:07.631Z,2.10
2023-09-21T00:07:53.602Z,2.10
2023-09-21T00:10:38.830Z,2.30
2023-09-21T00:13:28.571Z,2.33
2023-09-21T00:16:16.271Z,2.05
2023-09-21T00:19:08.024Z,2.70
2023-09-21T00:21:55.219Z,2.35
2023-09-21T00:24:40.504Z,2.30
2023-09-21T00:27:29.728Z,2.17
2023-09-21T00:30:16.228Z,2.00
2023-09-21T00:33:01.667Z,1.90
2023-09-21T00:35:47.174Z,2.40
2023-09-21T00:38:32.705Z,2.10
2023-09-21T00:41:19.598Z,1.90
2023-09-21T00:46:54.467Z,2.13
2023-09-21T00:49:39.691Z,1.80
2023-09-21T00:52:25.929Z,2.13
2023-09-21T00:55:14.323Z,2.08
2023-09-21T00:58:03.809Z,2.03
2023-09-21T01:00:50.373Z,2.10
2023-09-21T01:03:38.676Z,2.10
2023-09-21T01:06:24.755Z,2.25
2023-09-21T01:09:14.369Z,2.42
2023-09-21T01:12:00.949Z,2.28
2023-09-21T01:14:46.431Z,2.03
2023-09-21T01:17:32.256Z,1.92
2023-09-21T01:20:23.209Z,2.10
2023-09-21T01:23:19.798Z,2.20
2023-09-21T01:26:06.034Z,2.22
2023-09-21T01:28:51.472Z,1.92
2023-09-21T01:31:37.554Z,1.90
2023-09-21T01:34:22.956Z,2.10
2023-09-21T01:37:08.437Z,2.08
2023-09-21T01:39:53.673Z,1.95
2023-09-21T01:42:38.569Z,1.92
2023-09-21T01:45:23.623Z,2.00
2023-09-21T01:48:12.080Z,1.95
2023-09-21T01:51:00.522Z,2.35
2023-09-21T01:53:46.812Z,2.45
2023-09-21T01:56:32.376Z,2.72
2023-09-21T01:59:17.346Z,2.13
2023-09-21T02:02:02.777Z,2.33
2023-09-21T02:04:51.278Z,2.10
2023-09-21T02:07:36.907Z,2.20
2023-09-21T02:10:23.165Z,2.22
2023-09-21T02:13:08.944Z,2.17
2023-09-21T02:15:54.150Z,2.72
2023-09-21T02:18:39.273Z,2.03
2023-09-21T02:21:25.198Z,1.83
2023-09-21T02:24:10.597Z,2.35
2023-09-21T02:26:55.578Z,2.20
2023-09-21T02:29:41.944Z,2.50
2023-09-21T02:32:27.230Z,1.90
2023-09-21T02:35:16.983Z,2.30
2023-09-21T02:38:06.407Z,2.33
2023-09-21T02:40:51.791Z,2.63
2023-09-21T02:43:36.697Z,2.15
2023-09-21T02:46:23.120Z,2.40
2023-09-21T02:49:08.216Z,2.40
2023-09-21T02:51:53.988Z,2.03
2023-09-21T02:54:39.493Z,2.40
2023-09-21T02:57:25.060Z,2.28
2023-09-21T03:00:20.877Z,2.30
2023-09-21T03:03:07.896Z,2.20
2023-09-21T03:08:39.859Z,2.25
2023-09-21T03:11:26.463Z,2.30
2023-09-21T03:14:11.371Z,2.00
2023-09-21T03:16:56.776Z,2.25
2023-09-21T03:19:41.897Z,2.20
2023-09-21T03:22:28.295Z,2.33
2023-09-21T03:25:17.530Z,2.35
2023-09-21T03:28:17.157Z,2.55
2023-09-21T03:31:02.386Z,1.85
2023-09-21T03:33:48.738Z,2.22
2023-09-21T03:36:39.106Z,2.20
2023-09-21T03:39:28.240Z,2.30
2023-09-21T03:42:13.592Z,2.30
2023-09-21T03:44:58.419Z,2.90
2023-09-21T03:47:44.323Z,2.10
2023-09-21T03:50:29.363Z,2.53
2023-09-21T03:53:14.382Z,2.10
2023-09-21T03:56:01.428Z,2.20
2023-09-21T03:58:46.596Z,2.22
2023-09-21T04:01:31.581Z,2.45
2023-09-21T04:04:19.416Z,2.47
2023-09-21T04:07:05.077Z,2.63
2023-09-21T04:09:50.506Z,2.45
2023-09-21T04:12:36.225Z,2.03
2023-09-21T04:15:30.155Z,2.50
2023-09-21T04:18:15.744Z,2.08
2023-09-21T04:23:50.005Z,2.70
2023-09-21T04:26:35.121Z,2.50
2023-09-21T04:29:20.095Z,2.58
2023-09-21T04:32:05.431Z,2.20
2023-09-21T04:34:50.883Z,2.30
2023-09-21T04:37:36.429Z,2.35
2023-09-21T04:40:23.082Z,2.50
2023-09-21T04:43:08.921Z,2.47
2023-09-21T04:45:53.861Z,2.40
2023-09-21T04:48:41.375Z,2.35
2023-09-21T04:51:26.612Z,2.55
2023-09-21T04:54:11.971Z,2.92
2023-09-21T04:56:57.259Z,2.40
2023-09-21T04:59:42.617Z,2.38
2023-09-21T05:02:27.960Z,2.60
2023-09-21T05:05:15.119Z,2.65
2023-09-21T05:07:59.883Z,2.60
2023-09-21T05:10:45.236Z,2.83
2023-09-21T05:13:30.986Z,2.53
2023-09-21T05:16:19.291Z,2.58
2023-09-21T05:19:06.619Z,3.72
2023-09-21T05:21:52.081Z,2.90
2023-09-21T05:24:38.077Z,4.13
2023-09-21T05:27:23.202Z,3.85
2023-09-21T05:30:10.864Z,2.60
2023-09-21T05:33:02.213Z,2.40
2023-09-21T05:35:52.500Z,2.58
2023-09-21T05:38:38.322Z,2.38
2023-09-21T05:41:23.828Z,2.45
2023-09-21T05:44:08.927Z,2.80
2023-09-21T05:46:54.002Z,2.40
2023-09-21T05:49:39.224Z,2.47
2023-09-21T05:52:25.295Z,2.67
2023-09-21T05:55:13.865Z,2.88
2023-09-21T05:57:59.252Z,2.17
2023-09-21T06:00:44.243Z,2.35
2023-09-21T06:03:30.169Z,2.72
2023-09-21T06:06:15.925Z,2.33
2023-09-21T06:09:02.860Z,2.53
2023-09-21T06:14:33.082Z,2.60
2023-09-21T06:17:18.054Z,2.30
2023-09-21T06:20:04.482Z,2.95
2023-09-21T06:22:49.329Z,2.33
2023-09-21T06:25:36.320Z,3.17
2023-09-21T06:28:22.378Z,2.70
2023-09-21T06:31:08.272Z,2.72
2023-09-21T06:33:58.649Z,2.67
2023-09-21T06:36:43.747Z,2.33
2023-09-21T06:39:29.367Z,2.58
2023-09-21T06:42:16.536Z,2.60
2023-09-21T06:45:02.097Z,2.97
2023-09-21T06:47:48.900Z,2.72
2023-09-21T06:50:34.272Z,3.08
2023-09-21T06:53:19.246Z,3.65
2023-09-21T06:56:05.102Z,3.08
2023-09-21T06:58:50.534Z,3.00
2023-09-21T07:01:35.645Z,2.65
2023-09-21T07:04:22.259Z,3.60
2023-09-21T07:09:55.790Z,2.53
2023-09-21T07:12:41.122Z,2.47
2023-09-21T07:15:25.955Z,2.30
2023-09-21T07:18:10.953Z,2.40
2023-09-21T07:20:56.598Z,2.47
2023-09-21T07:23:42.037Z,2.60
2023-09-21T07:26:27.324Z,2.65
2023-09-21T07:29:16.359Z,2.70
2023-09-21T07:32:01.630Z,2.20
2023-09-21T07:34:50.168Z,2.28
2023-09-21T07:37:35.243Z,2.40
2023-09-21T07:40:22.350Z,2.75
2023-09-21T07:43:08.150Z,2.55
2023-09-21T07:45:54.854Z,2.10
2023-09-21T07:48:40.951Z,2.35
2023-09-21T07:51:27.591Z,2.72
2023-09-21T07:54:13.101Z,2.60
2023-09-21T07:56:58.473Z,2.50
2023-09-21T07:59:44.416Z,2.40
2023-09-21T08:02:29.574Z,2.42
2023-09-21T08:05:15.501Z,2.75
2023-09-21T08:08:01.490Z,2.80
2023-09-21T08:10:46.569Z,2.25
2023-09-21T08:13:32.309Z,2.20
2023-09-21T08:16:17.784Z,2.40
2023-09-21T08:19:03.055Z,2.22
2023-09-21T08:21:48.113Z,2.55
2023-09-21T08:24:33.679Z,2.10
2023-09-21T08:27:19.239Z,2.20
2023-09-21T08:30:06.181Z,2.10
2023-09-21T08:32:51.483Z,2.08
2023-09-21T08:35:37.016Z,2.17
2023-09-21T08:38:22.018Z,2.10
2023-09-21T08:41:07.431Z,2.20
2023-09-21T08:43:55.572Z,2.75
2023-09-21T08:46:41.588Z,2.35
2023-09-21T08:49:29.472Z,2.13
2023-09-21T08:52:15.080Z,2.03
2023-09-21T08:55:00.364Z,2.67
2023-09-21T08:57:46.342Z,2.20
2023-09-21T09:00:32.196Z,2.53
2023-09-21T09:03:20.599Z,2.15
2023-09-21T09:06:05.725Z,2.10
2023-09-21T09:08:50.934Z,2.25
2023-09-21T09:11:41.121Z,2.00
2023-09-21T09:14:26.327Z,1.83
2023-09-21T09:17:15.362Z,2.03
2023-09-21T09:20:03.591Z,2.10
2023-09-21T09:22:50.516Z,2.10
2023-09-21T09:25:38.432Z,2.05
2023-09-21T09:28:23.653Z,2.28
2023-09-21T09:31:12.126Z,2.30
2023-09-21T09:33:58.553Z,1.90
2023-09-21T09:36:46.881Z,2.00
2023-09-21T09:39:31.968Z,2.13
2023-09-21T09:42:18.653Z,1.90
2023-09-21T09:45:05.402Z,2.30
2023-09-21T09:47:59.180Z,1.92
2023-09-21T09:50:50.232Z,1.90
2023-09-21T09:53:36.175Z,2.38
2023-09-21T09:56:23.722Z,2.45
2023-09-21T09:59:12.996Z,2.75
2023-09-21T10:02:00.089Z,2.70
2023-09-21T10:07:33.003Z,2.72
2023-09-21T10:10:21.926Z,3.00
2023-09-21T10:13:07.260Z,2.60
2023-09-21T10:16:06.540Z,2.20
2023-09-21T10:18:59.955Z,2.10
2023-09-21T10:21:47.110Z,2.10
2023-09-21T10:24:33.195Z,2.10
2023-09-21T10:27:21.826Z,2.55
2023-09-21T10:30:16.756Z,3.00
2023-09-21T10:33:03.327Z,2.30
2023-09-21T10:38:36.365Z,2.40
2023-09-21T10:41:34.141Z,2.60
2023-09-21T10:45:05.382Z,2.40
2023-09-21T10:47:53.946Z,2.97
2023-09-21T10:50:40.121Z,2.50
2023-09-21T10:53:25.919Z,2.72
2023-09-21T10:56:10.951Z,2.38
2023-09-21T10:58:56.529Z,2.67
2023-09-21T11:01:42.844Z,2.50
2023-09-21T11:04:28.271Z,2.65
2023-09-21T11:07:14.153Z,2.50
2023-09-21T11:09:59.750Z,3.10
2023-09-21T11:12:45.965Z,3.10
2023-09-21T11:15:33.456Z,2.90
2023-09-21T11:18:18.996Z,2.10
2023-09-21T11:21:05.085Z,2.22
2023-09-21T11:23:51.214Z,2.22
2023-09-21T11:26:36.979Z,2.15
2023-09-21T11:29:22.181Z,2.10
2023-09-21T11:32:08.636Z,2.30
2023-09-21T11:34:59.812Z,2.40
2023-09-21T11:37:47.459Z,2.00
2023-09-21T11:40:33.361Z,2.17
2023-09-21T11:43:18.655Z,2.28
2023-09-21T11:46:04.931Z,2.30
2023-09-21T11:48:51.327Z,2.30
2023-09-21T11:57:07.986Z,2.20
2023-09-21T11:59:57.800Z,1.95
2023-09-21T12:02:44.814Z,1.92
2023-09-21T12:05:33.402Z,1.73
2023-09-21T12:08:20.918Z,1.80
2023-09-21T12:11:09.184Z,1.67
2023-09-21T12:13:54.715Z,1.80
2023-09-21T12:16:41.196Z,1.80
2023-09-21T12:19:26.993Z,2.05
2023-09-21T12:22:13.139Z,2.10
2023-09-21T12:24:58.275Z,2.13
2023-09-21T12:27:48.048Z,2.30
2023-09-21T12:30:33.855Z,2.03
2023-09-21T12:33:39.019Z,2.25
2023-09-21T12:36:34.608Z,2.20
2023-09-21T12:39:28.936Z,2.25
2023-09-21T12:42:15.753Z,2.53
2023-09-21T12:45:01.240Z,1.92
2023-09-21T12:47:47.546Z,2.03
2023-09-21T12:50:33.078Z,2.10
2023-09-21T12:53:18.661Z,2.30
2023-09-21T12:56:05.959Z,2.42
2023-09-21T12:58:51.801Z,2.50
2023-09-21T13:01:38.165Z,2.40
2023-09-21T13:04:24.605Z,2.25
2023-09-21T13:07:09.640Z,2.17
2023-09-21T13:09:54.691Z,2.28
2023-09-21T13:12:40.800Z,2.22
2023-09-21T13:15:27.777Z,1.90
2023-09-21T13:18:15.550Z,2.35
2023-09-21T13:21:01.130Z,2.30
2023-09-21T13:23:46.377Z,2.20
2023-09-21T13:26:31.591Z,2.15
2023-09-21T13:29:19.690Z,2.00
2023-09-21T13:32:05.957Z,2.40
2023-09-21T13:34:51.869Z,2.45
2023-09-21T13:37:37.428Z,2.40
2023-09-21T13:40:23.231Z,2.10
2023-09-21T13:43:08.599Z,2.50
2023-09-21T13:45:53.567Z,2.20
2023-09-21T13:48:39.634Z,2.20
2023-09-21T13:51:25.311Z,2.40
2023-09-21T13:54:10.629Z,2.50
2023-09-21T13:56:56.088Z,2.60
2023-09-21T13:59:41.315Z,2.45
2023-09-21T14:02:27.224Z,3.00
2023-09-21T14:05:12.564Z,2.90
2023-09-21T14:07:58.796Z,2.92
2023-09-21T14:10:44.607Z,2.75
2023-09-21T14:13:29.698Z,2.50
2023-09-21T14:16:14.734Z,2.40
2023-09-21T14:19:00.460Z,2.70
2023-09-21T14:21:45.499Z,2.78
2023-09-21T14:24:31.372Z,2.42
2023-09-21T14:27:16.630Z,2.50
2023-09-21T14:30:03.166Z,2.70
2023-09-21T14:32:53.720Z,2.30
2023-09-21T14:35:38.689Z,2.17
2023-09-21T14:38:23.651Z,2.47
2023-09-21T14:41:08.708Z,2.60
2023-09-21T14:43:53.693Z,2.30
2023-09-21T14:46:38.655Z,2.60
2023-09-21T14:49:26.644Z,2.42
2023-09-21T14:52:13.773Z,2.60
2023-09-21T14:54:59.264Z,2.92
2023-09-21T14:57:45.079Z,2.65
2023-09-21T15:00:31.057Z,2.45
2023-09-21T15:03:16.992Z,2.72
2023-09-21T15:06:02.635Z,2.75
2023-09-21T15:08:48.136Z,2.40
2023-09-21T15:11:33.376Z,2.63
2023-09-21T15:14:19.307Z,2.58
2023-09-21T15:17:04.351Z,2.65
2023-09-21T15:19:50.343Z,3.00
2023-09-21T15:22:35.435Z,2.67
2023-09-21T15:25:21.233Z,2.50
2023-09-21T15:28:06.794Z,3.17
2023-09-21T15:30:52.411Z,2.60
2023-09-21T15:33:37.685Z,2.65
2023-09-21T15:36:23.019Z,2.10
2023-09-21T15:39:11.862Z,2.13
2023-09-21T15:41:56.741Z,2.60
2023-09-21T15:44:42.126Z,2.58
2023-09-21T15:47:27.847Z,2.30
2023-09-21T15:50:13.238Z,2.40
2023-09-21T15:52:58.843Z,2.10
2023-09-21T15:55:46.073Z,2.65
2023-09-21T15:58:32.818Z,2.20
2023-09-21T16:01:18.105Z,2.40
2023-09-21T16:04:06.678Z,2.58
2023-09-21T16:06:51.930Z,2.33
2023-09-21T16:09:36.883Z,2.50
2023-09-21T16:12:22.279Z,1.90
2023-09-21T16:15:07.938Z,2.30
2023-09-21T16:17:53.582Z,2.55
2023-09-21T16:20:39.031Z,2.22
2023-09-21T16:23:26.123Z,2.30
2023-09-21T16:28:56.017Z,2.70
2023-09-21T16:31:41.476Z,2.28
2023-09-21T16:34:26.375Z,2.50
2023-09-21T16:37:11.783Z,2.17
2023-09-21T16:39:57.084Z,2.20
2023-09-21T16:42:42.151Z,2.80
2023-09-21T16:45:27.785Z,2.35
2023-09-21T16:48:12.909Z,2.40
2023-09-21T16:50:59.118Z,2.28
2023-09-21T16:53:44.553Z,2.80
2023-09-21T16:56:32.025Z,2.08
2023-09-21T16:59:19.038Z,2.40
2023-09-21T17:02:04.355Z,2.65
2023-09-21T17:04:49.654Z,2.63
2023-09-21T17:07:34.666Z,2.55
2023-09-21T17:10:21.279Z,2.40
2023-09-21T17:13:08.230Z,2.40
2023-09-21T17:15:53.968Z,2.40
2023-09-21T17:18:39.031Z,2.33
2023-09-21T17:21:24.126Z,2.70
2023-09-21T17:24:09.426Z,2.10
2023-09-21T17:26:54.661Z,2.22
2023-09-21T17:29:39.891Z,2.50
2023-09-21T17:32:25.732Z,2.30
2023-09-21T17:35:11.151Z,2.20
2023-09-21T17:37:56.510Z,2.13
2023-09-21T17:40:41.633Z,2.47
2023-09-21T17:43:27.372Z,2.17
2023-09-21T17:46:12.739Z,2.67
2023-09-21T17:48:58.109Z,2.30
2023-09-21T17:51:44.174Z,2.50
2023-09-21T17:54:29.360Z,2.55
2023-09-21T17:57:15.914Z,2.42
2023-09-21T18:00:01.310Z,2.40
2023-09-21T18:02:46.962Z,2.50
2023-09-21T18:05:34.692Z,2.30
2023-09-21T18:08:20.137Z,2.05
2023-09-21T18:11:05.555Z,2.20
2023-09-21T18:13:51.166Z,2.08
2023-09-21T18:16:36.176Z,2.40
2023-09-21T18:19:21.182Z,2.30
2023-09-21T18:22:07.063Z,2.30
2023-09-21T18:24:52.068Z,3.25
2023-09-21T18:27:37.521Z,2.50
2023-09-21T18:30:22.656Z,2.45
2023-09-21T18:33:08.098Z,2.63
2023-09-21T18:35:52.995Z,2.40
2023-09-21T18:38:38.365Z,2.50
2023-09-21T18:41:23.448Z,2.60
2023-09-21T18:44:08.940Z,2.30
2023-09-21T18:46:54.004Z,2.28
2023-09-21T18:49:39.376Z,2.83
2023-09-21T18:52:24.565Z,2.85
2023-09-21T18:55:09.948Z,2.25
2023-09-21T18:57:56.192Z,2.40
2023-09-21T19:00:41.486Z,2.60
2023-09-21T19:03:27.305Z,2.40
2023-09-21T19:06:13.705Z,2.50
2023-09-21T19:09:00.625Z,2.55
2023-09-21T19:11:46.914Z,2.70
2023-09-21T19:14:31.906Z,2.50
2023-09-21T19:17:17.274Z,2.60
2023-09-21T19:20:04.006Z,2.65
2023-09-21T19:22:50.288Z,3.10
2023-09-21T19:25:37.843Z,2.80
2023-09-21T19:28:25.714Z,2.40
2023-09-21T19:31:13.323Z,2.50
2023-09-21T19:33:58.500Z,2.80
2023-09-21T19:36:44.057Z,2.40
2023-09-21T19:39:29.974Z,2.78
2023-09-21T19:42:15.063Z,2.60
2023-09-21T19:45:00.362Z,2.35
2023-09-21T19:47:45.614Z,2.60
2023-09-21T19:50:31.126Z,2.60
2023-09-21T19:53:17.447Z,2.70
2023-09-21T19:56:02.685Z,2.30
2023-09-21T19:58:47.953Z,2.50
2023-09-21T20:01:33.273Z,2.40
2023-09-21T20:04:19.199Z,2.72
2023-09-21T20:07:04.894Z,2.40
2023-09-21T20:09:50.179Z,2.53
2023-09-21T20:12:35.635Z,2.42
2023-09-21T20:15:21.148Z,2.70
2023-09-21T20:18:07.276Z,2.67
2023-09-21T20:20:52.425Z,2.40
2023-09-21T20:23:37.477Z,2.40
2023-09-21T20:26:22.850Z,2.70
2023-09-21T20:29:08.025Z,2.30
2023-09-21T20:31:55.108Z,2.63
2023-09-21T20:34:40.805Z,2.72
2023-09-21T20:37:25.770Z,2.50
2023-09-21T20:40:12.706Z,2.35
2023-09-21T20:42:58.041Z,2.60
2023-09-21T20:45:45.410Z,2.40
2023-09-21T20:48:30.995Z,2.58
2023-09-21T20:51:16.766Z,2.67
2023-09-21T20:54:01.943Z,2.67
2023-09-21T20:56:47.118Z,2.60
2023-09-21T20:59:32.596Z,2.72
2023-09-21T21:02:18.015Z,2.50
2023-09-21T21:05:03.383Z,2.50
2023-09-21T21:07:48.747Z,3.03
2023-09-21T21:10:33.806Z,2.88
2023-09-21T21:13:19.112Z,2.30
2023-09-21T21:16:04.755Z,2.60
2023-09-21T21:18:49.997Z,2.30
2023-09-21T21:21:36.114Z,2.80
2023-09-21T21:24:21.065Z,2.33
2023-09-21T21:27:06.223Z,2.90
2023-09-21T21:29:51.372Z,2.50
2023-09-21T21:32:36.669Z,2.95
2023-09-21T21:35:22.038Z,2.40
2023-09-21T21:38:06.923Z,2.63
2023-09-21T21:40:52.248Z,2.58
2023-09-21T21:43:40.191Z,2.90
2023-09-21T21:46:25.631Z,2.75
2023-09-21T21:49:10.748Z,2.50
2023-09-21T21:51:56.939Z,2.58
2023-09-21T21:54:42.282Z,2.30
2023-09-21T21:57:27.542Z,2.53
2023-09-21T22:00:27.557Z,2.65
2023-09-21T22:03:13.132Z,2.42
2023-09-21T22:05:59.495Z,2.80
2023-09-21T22:08:45.243Z,2.92
2023-09-21T22:11:30.619Z,2.85
2023-09-21T22:14:15.687Z,3.22
2023-09-21T22:17:00.870Z,3.00
2023-09-21T22:19:46.255Z,2.50
2023-09-21T22:22:31.476Z,2.90
2023-09-21T22:25:20.489Z,2.70
2023-09-21T22:28:07.586Z,2.55
2023-09-21T22:30:53.637Z,2.55
2023-09-21T22:33:41.164Z,2.20
2023-09-21T22:36:29.212Z,2.95
2023-09-21T22:39:17.405Z,2.72
2023-09-21T22:42:02.618Z,2.80
2023-09-21T22:44:47.612Z,2.50
2023-09-21T22:47:34.376Z,2.85
2023-09-21T22:50:20.659Z,3.30
2023-09-21T22:53:05.841Z,3.17
2023-09-21T22:55:52.268Z,2.70
2023-09-21T22:58:38.346Z,3.83
2023-09-21T23:01:24.350Z,3.17
2023-09-21T23:04:09.756Z,3.47
2023-09-21T23:06:59.090Z,3.30
2023-09-21T23:09:44.553Z,3.13
2023-09-21T23:12:34.931Z,3.00
2023-09-21T23:15:20.016Z,2.83
2023-09-21T23:18:05.410Z,3.53
2023-09-21T23:20:50.366Z,3.00
2023-09-21T23:23:40.034Z,3.28
2023-09-21T23:26:28.733Z,4.10
2023-09-21T23:29:15.902Z,3.92
2023-09-21T23:32:01.488Z,3.15
2023-09-21T23:34:47.254Z,3.25
2023-09-21T23:37:33.282Z,3.22
2023-09-21T23:40:20.843Z,3.45
2023-09-21T23:43:06.337Z,3.33
2023-09-21T23:45:51.560Z,3.40
2023-09-21T23:48:38.400Z,3.25
2023-09-21T23:51:24.094Z,3.72
2023-09-21T23:54:09.545Z,3.40
2023-09-21T23:56:55.130Z,3.50
2023-09-21T23:59:40.331Z,3.13
